sensor_id;sensor_type;location;lat;lon;timestamp;P1;durP1;ratioP1;P2;durP2;ratioP2
75435;SDS011;64014;53.432;14.534;2022-12-04T00:01:54;68.80;;;25.80;;
75435;SDS011;64014;53.432;14.534;2022-12-04T00:04:20;69.47;;;27.45;;
75435;SDS011;64014;53.432;14.534;2022-12-04T00:06:46;67.65;;;25.92;;
75435;SDS011;64014;53.432;14.534;2022-12-04T00:09:12;71.88;;;26.30;;
75435;SDS011;64014;53.432;14.534;2022-12-04T00:11:37;69.55;;;27.40;;
75435;SDS011;64014;53.432;14.534;2022-12-04T00:14:04;76.30;;;25.83;;
75435;SDS011;64014;53.432;14.534;2022-12-04T00:16:30;64.90;;;24.85;;
75435;SDS011;64014;53.432;14.534;2022-12-04T00:18:55;70.55;;;25.88;;
75435;SDS011;64014;53.432;14.534;2022-12-04T00:21:22;67.25;;;24.48;;
75435;SDS011;64014;53.432;14.534;2022-12-04T00:23:48;71.88;;;26.50;;
75435;SDS011;64014;53.432;14.534;2022-12-04T00:26:18;66.97;;;24.42;;
75435;SDS011;64014;53.432;14.534;2022-12-04T00:28:48;61.75;;;24.85;;
75435;SDS011;64014;53.432;14.534;2022-12-04T00:31:16;67.75;;;26.20;;
75435;SDS011;64014;53.432;14.534;2022-12-04T00:33:43;74.18;;;27.92;;
75435;SDS011;64014;53.432;14.534;2022-12-04T00:36:11;67.20;;;26.58;;
75435;SDS011;64014;53.432;14.534;2022-12-04T00:38:38;69.85;;;26.50;;
75435;SDS011;64014;53.432;14.534;2022-12-04T00:41:04;70.80;;;25.23;;
75435;SDS011;64014;53.432;14.534;2022-12-04T00:43:36;71.18;;;25.90;;
75435;SDS011;64014;53.432;14.534;2022-12-04T00:46:02;71.70;;;28.52;;
75435;SDS011;64014;53.432;14.534;2022-12-04T00:48:28;69.63;;;25.20;;
75435;SDS011;64014;53.432;14.534;2022-12-04T00:50:54;66.78;;;25.67;;
75435;SDS011;64014;53.432;14.534;2022-12-04T00:53:20;67.07;;;26.30;;
75435;SDS011;64014;53.432;14.534;2022-12-04T00:55:46;69.10;;;25.52;;
75435;SDS011;64014;53.432;14.534;2022-12-04T00:58:12;78.57;;;27.55;;
75435;SDS011;64014;53.432;14.534;2022-12-04T01:00:39;72.95;;;25.27;;
75435;SDS011;64014;53.432;14.534;2022-12-04T01:03:06;71.40;;;27.40;;
75435;SDS011;64014;53.432;14.534;2022-12-04T01:05:37;74.30;;;26.38;;
75435;SDS011;64014;53.432;14.534;2022-12-04T01:08:07;72.40;;;26.42;;
75435;SDS011;64014;53.432;14.534;2022-12-04T01:10:34;72.80;;;27.40;;
75435;SDS011;64014;53.432;14.534;2022-12-04T01:13:01;69.45;;;26.90;;
75435;SDS011;64014;53.432;14.534;2022-12-04T01:15:27;69.82;;;26.50;;
75435;SDS011;64014;53.432;14.534;2022-12-04T01:17:53;68.97;;;25.33;;
75435;SDS011;64014;53.432;14.534;2022-12-04T01:20:19;71.93;;;26.45;;
75435;SDS011;64014;53.432;14.534;2022-12-04T01:22:45;73.50;;;26.50;;
75435;SDS011;64014;53.432;14.534;2022-12-04T01:25:10;70.20;;;25.55;;
75435;SDS011;64014;53.432;14.534;2022-12-04T01:27:36;67.55;;;25.25;;
75435;SDS011;64014;53.432;14.534;2022-12-04T01:30:02;70.10;;;25.77;;
75435;SDS011;64014;53.432;14.534;2022-12-04T01:32:28;63.20;;;25.75;;
75435;SDS011;64014;53.432;14.534;2022-12-04T01:34:54;63.92;;;25.02;;
75435;SDS011;64014;53.432;14.534;2022-12-04T01:37:20;65.78;;;24.95;;
75435;SDS011;64014;53.432;14.534;2022-12-04T01:39:46;63.30;;;25.60;;
75435;SDS011;64014;53.432;14.534;2022-12-04T01:42:12;73.68;;;26.60;;
75435;SDS011;64014;53.432;14.534;2022-12-04T01:44:43;67.13;;;25.25;;
75435;SDS011;64014;53.432;14.534;2022-12-04T01:47:29;72.53;;;25.95;;
75435;SDS011;64014;53.432;14.534;2022-12-04T01:49:55;67.28;;;26.90;;
75435;SDS011;64014;53.432;14.534;2022-12-04T01:52:22;70.10;;;26.35;;
75435;SDS011;64014;53.432;14.534;2022-12-04T01:54:54;67.60;;;26.90;;
75435;SDS011;64014;53.432;14.534;2022-12-04T01:57:24;64.72;;;25.48;;
75435;SDS011;64014;53.432;14.534;2022-12-04T01:59:54;81.97;;;28.17;;
75435;SDS011;64014;53.432;14.534;2022-12-04T02:02:29;76.32;;;27.27;;
75435;SDS011;64014;53.432;14.534;2022-12-04T02:04:58;66.20;;;25.23;;
75435;SDS011;64014;53.432;14.534;2022-12-04T02:07:26;68.13;;;26.13;;
75435;SDS011;64014;53.432;14.534;2022-12-04T02:09:52;73.60;;;28.23;;
75435;SDS011;64014;53.432;14.534;2022-12-04T02:26:41;79.00;;;28.27;;
75435;SDS011;64014;53.432;14.534;2022-12-04T02:29:02;77.22;;;27.08;;
75435;SDS011;64014;53.432;14.534;2022-12-04T02:31:52;75.00;;;26.85;;
75435;SDS011;64014;53.432;14.534;2022-12-04T02:34:28;68.38;;;28.13;;
75435;SDS011;64014;53.432;14.534;2022-12-04T02:37:03;74.47;;;27.23;;
75435;SDS011;64014;53.432;14.534;2022-12-04T02:39:36;80.45;;;29.17;;
75435;SDS011;64014;53.432;14.534;2022-12-04T02:45:00;77.90;;;29.23;;
75435;SDS011;64014;53.432;14.534;2022-12-04T02:47:30;77.10;;;29.17;;
75435;SDS011;64014;53.432;14.534;2022-12-04T02:49:58;81.13;;;27.95;;
75435;SDS011;64014;53.432;14.534;2022-12-04T02:53:00;82.38;;;29.63;;
75435;SDS011;64014;53.432;14.534;2022-12-04T02:55:31;82.18;;;30.08;;
75435;SDS011;64014;53.432;14.534;2022-12-04T02:58:12;82.03;;;29.52;;
75435;SDS011;64014;53.432;14.534;2022-12-04T03:00:41;87.57;;;30.65;;
75435;SDS011;64014;53.432;14.534;2022-12-04T03:03:11;79.68;;;27.70;;
75435;SDS011;64014;53.432;14.534;2022-12-04T03:05:42;80.80;;;28.35;;
75435;SDS011;64014;53.432;14.534;2022-12-04T03:08:24;76.68;;;28.25;;
75435;SDS011;64014;53.432;14.534;2022-12-04T03:10:55;72.20;;;25.77;;
75435;SDS011;64014;53.432;14.534;2022-12-04T03:18:27;80.30;;;28.98;;
75435;SDS011;64014;53.432;14.534;2022-12-04T03:21:02;78.45;;;27.33;;
75435;SDS011;64014;53.432;14.534;2022-12-04T03:23:43;83.07;;;30.20;;
75435;SDS011;64014;53.432;14.534;2022-12-04T03:26:28;71.88;;;26.77;;
75435;SDS011;64014;53.432;14.534;2022-12-04T03:31:41;77.30;;;27.55;;
75435;SDS011;64014;53.432;14.534;2022-12-04T03:34:15;81.95;;;28.40;;
75435;SDS011;64014;53.432;14.534;2022-12-04T03:36:57;82.25;;;28.50;;
75435;SDS011;64014;53.432;14.534;2022-12-04T03:42:11;83.03;;;28.70;;
75435;SDS011;64014;53.432;14.534;2022-12-04T03:47:16;78.28;;;28.70;;
75435;SDS011;64014;53.432;14.534;2022-12-04T03:50:04;73.18;;;28.05;;
75435;SDS011;64014;53.432;14.534;2022-12-04T03:55:23;76.82;;;30.25;;
75435;SDS011;64014;53.432;14.534;2022-12-04T03:57:49;80.05;;;30.15;;
75435;SDS011;64014;53.432;14.534;2022-12-04T04:00:17;79.45;;;28.88;;
75435;SDS011;64014;53.432;14.534;2022-12-04T04:03:32;77.43;;;27.45;;
75435;SDS011;64014;53.432;14.534;2022-12-04T04:05:54;74.20;;;28.92;;
75435;SDS011;64014;53.432;14.534;2022-12-04T04:08:26;84.07;;;29.85;;
75435;SDS011;64014;53.432;14.534;2022-12-04T04:13:39;80.80;;;29.58;;
75435;SDS011;64014;53.432;14.534;2022-12-04T04:16:30;82.68;;;29.55;;
75435;SDS011;64014;53.432;14.534;2022-12-04T04:19:18;84.53;;;29.23;;
75435;SDS011;64014;53.432;14.534;2022-12-04T04:22:05;82.05;;;29.70;;
75435;SDS011;64014;53.432;14.534;2022-12-04T04:24:54;81.18;;;30.25;;
75435;SDS011;64014;53.432;14.534;2022-12-04T04:27:54;85.95;;;30.80;;
75435;SDS011;64014;53.432;14.534;2022-12-04T04:30:21;85.70;;;31.35;;
75435;SDS011;64014;53.432;14.534;2022-12-04T04:32:53;89.72;;;32.58;;
75435;SDS011;64014;53.432;14.534;2022-12-04T04:35:33;85.90;;;30.23;;
75435;SDS011;64014;53.432;14.534;2022-12-04T04:38:14;85.75;;;29.67;;
75435;SDS011;64014;53.432;14.534;2022-12-04T04:43:30;91.40;;;33.45;;
75435;SDS011;64014;53.432;14.534;2022-12-04T04:46:33;96.57;;;31.67;;
75435;SDS011;64014;53.432;14.534;2022-12-04T04:49:04;93.97;;;32.90;;
75435;SDS011;64014;53.432;14.534;2022-12-04T04:51:32;92.85;;;32.72;;
75435;SDS011;64014;53.432;14.534;2022-12-04T04:53:59;95.07;;;33.92;;
75435;SDS011;64014;53.432;14.534;2022-12-04T04:56:28;88.80;;;31.67;;
75435;SDS011;64014;53.432;14.534;2022-12-04T04:58:54;95.70;;;35.35;;
75435;SDS011;64014;53.432;14.534;2022-12-04T05:01:21;91.55;;;32.35;;
75435;SDS011;64014;53.432;14.534;2022-12-04T05:03:51;96.68;;;32.15;;
75435;SDS011;64014;53.432;14.534;2022-12-04T05:06:16;91.95;;;32.25;;
75435;SDS011;64014;53.432;14.534;2022-12-04T05:08:42;84.65;;;31.02;;
75435;SDS011;64014;53.432;14.534;2022-12-04T05:11:12;91.50;;;34.55;;
75435;SDS011;64014;53.432;14.534;2022-12-04T05:13:39;96.75;;;33.13;;
75435;SDS011;64014;53.432;14.534;2022-12-04T05:16:06;96.78;;;33.05;;
75435;SDS011;64014;53.432;14.534;2022-12-04T05:18:34;90.72;;;32.15;;
75435;SDS011;64014;53.432;14.534;2022-12-04T05:21:04;89.95;;;32.08;;
75435;SDS011;64014;53.432;14.534;2022-12-04T05:23:33;86.53;;;30.67;;
75435;SDS011;64014;53.432;14.534;2022-12-04T05:26:00;88.38;;;30.88;;
75435;SDS011;64014;53.432;14.534;2022-12-04T05:28:27;88.18;;;30.42;;
75435;SDS011;64014;53.432;14.534;2022-12-04T05:30:54;81.80;;;28.63;;
75435;SDS011;64014;53.432;14.534;2022-12-04T05:33:20;83.40;;;29.35;;
75435;SDS011;64014;53.432;14.534;2022-12-04T05:35:54;87.10;;;30.83;;
75435;SDS011;64014;53.432;14.534;2022-12-04T05:38:24;80.05;;;29.73;;
75435;SDS011;64014;53.432;14.534;2022-12-04T05:40:49;86.65;;;30.05;;
75435;SDS011;64014;53.432;14.534;2022-12-04T05:43:15;85.00;;;29.52;;
75435;SDS011;64014;53.432;14.534;2022-12-04T05:45:41;81.95;;;29.33;;
75435;SDS011;64014;53.432;14.534;2022-12-04T05:48:06;86.20;;;29.88;;
75435;SDS011;64014;53.432;14.534;2022-12-04T05:50:32;91.82;;;32.88;;
75435;SDS011;64014;53.432;14.534;2022-12-04T05:52:58;83.75;;;29.30;;
75435;SDS011;64014;53.432;14.534;2022-12-04T05:55:23;81.15;;;29.98;;
75435;SDS011;64014;53.432;14.534;2022-12-04T05:57:49;78.70;;;31.02;;
75435;SDS011;64014;53.432;14.534;2022-12-04T06:00:15;78.13;;;28.75;;
75435;SDS011;64014;53.432;14.534;2022-12-04T06:02:42;85.07;;;29.00;;
75435;SDS011;64014;53.432;14.534;2022-12-04T06:05:07;80.07;;;29.73;;
75435;SDS011;64014;53.432;14.534;2022-12-04T06:07:33;81.18;;;30.70;;
75435;SDS011;64014;53.432;14.534;2022-12-04T06:09:59;81.63;;;28.48;;
75435;SDS011;64014;53.432;14.534;2022-12-04T06:12:25;76.97;;;26.92;;
75435;SDS011;64014;53.432;14.534;2022-12-04T06:14:51;81.75;;;28.58;;
75435;SDS011;64014;53.432;14.534;2022-12-04T06:17:16;78.82;;;28.05;;
75435;SDS011;64014;53.432;14.534;2022-12-04T06:19:42;74.45;;;26.17;;
75435;SDS011;64014;53.432;14.534;2022-12-04T06:22:07;77.78;;;27.50;;
75435;SDS011;64014;53.432;14.534;2022-12-04T06:24:33;82.47;;;29.10;;
75435;SDS011;64014;53.432;14.534;2022-12-04T06:26:59;79.00;;;27.75;;
75435;SDS011;64014;53.432;14.534;2022-12-04T06:29:24;76.53;;;27.17;;
75435;SDS011;64014;53.432;14.534;2022-12-04T06:31:50;79.22;;;28.02;;
75435;SDS011;64014;53.432;14.534;2022-12-04T06:34:16;83.00;;;32.45;;
75435;SDS011;64014;53.432;14.534;2022-12-04T06:36:42;73.63;;;28.88;;
75435;SDS011;64014;53.432;14.534;2022-12-04T06:39:08;76.38;;;27.83;;
75435;SDS011;64014;53.432;14.534;2022-12-04T06:41:34;79.25;;;28.63;;
75435;SDS011;64014;53.432;14.534;2022-12-04T06:44:00;77.25;;;29.33;;
75435;SDS011;64014;53.432;14.534;2022-12-04T06:46:27;76.80;;;28.52;;
75435;SDS011;64014;53.432;14.534;2022-12-04T06:48:55;80.53;;;27.58;;
75435;SDS011;64014;53.432;14.534;2022-12-04T06:51:23;79.75;;;28.10;;
75435;SDS011;64014;53.432;14.534;2022-12-04T06:53:56;72.90;;;28.65;;
75435;SDS011;64014;53.432;14.534;2022-12-04T06:56:23;75.90;;;29.00;;
75435;SDS011;64014;53.432;14.534;2022-12-04T06:58:51;69.50;;;27.50;;
75435;SDS011;64014;53.432;14.534;2022-12-04T07:01:20;68.22;;;27.90;;
75435;SDS011;64014;53.432;14.534;2022-12-04T07:03:47;73.47;;;26.23;;
75435;SDS011;64014;53.432;14.534;2022-12-04T07:06:21;66.80;;;26.50;;
75435;SDS011;64014;53.432;14.534;2022-12-04T07:08:52;76.75;;;27.90;;
75435;SDS011;64014;53.432;14.534;2022-12-04T07:11:20;70.97;;;28.25;;
75435;SDS011;64014;53.432;14.534;2022-12-04T07:13:46;72.55;;;28.17;;
75435;SDS011;64014;53.432;14.534;2022-12-04T07:16:13;68.25;;;27.73;;
75435;SDS011;64014;53.432;14.534;2022-12-04T07:18:41;73.15;;;28.52;;
75435;SDS011;64014;53.432;14.534;2022-12-04T07:21:08;69.78;;;27.35;;
75435;SDS011;64014;53.432;14.534;2022-12-04T07:23:35;62.30;;;25.73;;
75435;SDS011;64014;53.432;14.534;2022-12-04T07:26:08;71.85;;;28.27;;
75435;SDS011;64014;53.432;14.534;2022-12-04T07:28:36;69.95;;;27.90;;
75435;SDS011;64014;53.432;14.534;2022-12-04T07:31:03;65.68;;;26.45;;
75435;SDS011;64014;53.432;14.534;2022-12-04T07:33:34;72.80;;;27.92;;
75435;SDS011;64014;53.432;14.534;2022-12-04T07:36:00;67.40;;;27.35;;
75435;SDS011;64014;53.432;14.534;2022-12-04T07:38:28;63.67;;;25.45;;
75435;SDS011;64014;53.432;14.534;2022-12-04T07:40:58;70.38;;;28.52;;
75435;SDS011;64014;53.432;14.534;2022-12-04T07:43:25;64.22;;;25.58;;
75435;SDS011;64014;53.432;14.534;2022-12-04T07:45:52;60.85;;;25.75;;
75435;SDS011;64014;53.432;14.534;2022-12-04T07:48:18;64.93;;;26.27;;
75435;SDS011;64014;53.432;14.534;2022-12-04T07:50:44;59.67;;;26.17;;
75435;SDS011;64014;53.432;14.534;2022-12-04T07:53:10;72.68;;;28.58;;
75435;SDS011;64014;53.432;14.534;2022-12-04T07:55:36;69.72;;;27.23;;
75435;SDS011;64014;53.432;14.534;2022-12-04T07:58:01;66.10;;;27.70;;
75435;SDS011;64014;53.432;14.534;2022-12-04T08:00:27;68.60;;;27.33;;
75435;SDS011;64014;53.432;14.534;2022-12-04T08:02:53;61.78;;;26.33;;
75435;SDS011;64014;53.432;14.534;2022-12-04T08:05:19;60.33;;;25.83;;
75435;SDS011;64014;53.432;14.534;2022-12-04T08:07:45;64.05;;;26.42;;
75435;SDS011;64014;53.432;14.534;2022-12-04T08:10:11;69.22;;;27.63;;
75435;SDS011;64014;53.432;14.534;2022-12-04T08:12:37;71.15;;;28.10;;
75435;SDS011;64014;53.432;14.534;2022-12-04T08:15:02;63.92;;;27.58;;
75435;SDS011;64014;53.432;14.534;2022-12-04T08:17:29;60.15;;;24.92;;
75435;SDS011;64014;53.432;14.534;2022-12-04T08:19:55;62.03;;;25.23;;
75435;SDS011;64014;53.432;14.534;2022-12-04T08:22:21;61.45;;;23.30;;
75435;SDS011;64014;53.432;14.534;2022-12-04T08:24:46;60.20;;;25.00;;
75435;SDS011;64014;53.432;14.534;2022-12-04T08:27:12;60.95;;;23.60;;
75435;SDS011;64014;53.432;14.534;2022-12-04T08:29:38;64.60;;;26.40;;
75435;SDS011;64014;53.432;14.534;2022-12-04T08:32:04;60.53;;;27.25;;
75435;SDS011;64014;53.432;14.534;2022-12-04T08:34:30;62.92;;;26.75;;
75435;SDS011;64014;53.432;14.534;2022-12-04T08:36:55;63.72;;;26.20;;
75435;SDS011;64014;53.432;14.534;2022-12-04T08:39:21;62.67;;;26.38;;
75435;SDS011;64014;53.432;14.534;2022-12-04T08:41:47;64.65;;;25.65;;
75435;SDS011;64014;53.432;14.534;2022-12-04T08:44:12;62.75;;;26.50;;
75435;SDS011;64014;53.432;14.534;2022-12-04T08:46:38;65.97;;;27.25;;
75435;SDS011;64014;53.432;14.534;2022-12-04T08:49:04;69.18;;;27.35;;
75435;SDS011;64014;53.432;14.534;2022-12-04T08:51:30;73.15;;;29.33;;
75435;SDS011;64014;53.432;14.534;2022-12-04T08:54:04;68.28;;;29.33;;
75435;SDS011;64014;53.432;14.534;2022-12-04T08:56:32;67.47;;;28.95;;
75435;SDS011;64014;53.432;14.534;2022-12-04T08:58:59;76.65;;;32.28;;
75435;SDS011;64014;53.432;14.534;2022-12-04T09:01:25;76.50;;;30.27;;
75435;SDS011;64014;53.432;14.534;2022-12-04T09:03:52;67.97;;;29.17;;
75435;SDS011;64014;53.432;14.534;2022-12-04T09:06:19;70.45;;;28.70;;
75435;SDS011;64014;53.432;14.534;2022-12-04T09:08:45;69.18;;;28.52;;
75435;SDS011;64014;53.432;14.534;2022-12-04T09:11:12;74.55;;;31.02;;
75435;SDS011;64014;53.432;14.534;2022-12-04T09:13:40;73.65;;;32.53;;
75435;SDS011;64014;53.432;14.534;2022-12-04T09:16:09;70.05;;;30.65;;
75435;SDS011;64014;53.432;14.534;2022-12-04T09:18:39;72.95;;;32.17;;
75435;SDS011;64014;53.432;14.534;2022-12-04T09:21:06;74.30;;;32.22;;
75435;SDS011;64014;53.432;14.534;2022-12-04T09:23:34;62.53;;;26.08;;
75435;SDS011;64014;53.432;14.534;2022-12-04T09:26:00;68.10;;;29.77;;
75435;SDS011;64014;53.432;14.534;2022-12-04T09:28:26;71.07;;;29.65;;
75435;SDS011;64014;53.432;14.534;2022-12-04T09:30:56;70.70;;;30.10;;
75435;SDS011;64014;53.432;14.534;2022-12-04T09:33:27;70.60;;;28.38;;
75435;SDS011;64014;53.432;14.534;2022-12-04T09:35:54;68.45;;;28.13;;
75435;SDS011;64014;53.432;14.534;2022-12-04T09:38:22;68.75;;;27.67;;
75435;SDS011;64014;53.432;14.534;2022-12-04T09:40:54;63.97;;;28.10;;
75435;SDS011;64014;53.432;14.534;2022-12-04T09:46:39;62.03;;;26.65;;
75435;SDS011;64014;53.432;14.534;2022-12-04T09:49:13;72.18;;;27.98;;
75435;SDS011;64014;53.432;14.534;2022-12-04T09:51:46;71.20;;;30.17;;
75435;SDS011;64014;53.432;14.534;2022-12-04T09:54:15;75.38;;;31.02;;
75435;SDS011;64014;53.432;14.534;2022-12-04T09:56:45;75.90;;;30.77;;
75435;SDS011;64014;53.432;14.534;2022-12-04T09:59:18;68.68;;;29.00;;
75435;SDS011;64014;53.432;14.534;2022-12-04T10:01:48;72.30;;;29.73;;
75435;SDS011;64014;53.432;14.534;2022-12-04T10:04:20;67.57;;;29.38;;
75435;SDS011;64014;53.432;14.534;2022-12-04T10:06:48;67.82;;;29.23;;
75435;SDS011;64014;53.432;14.534;2022-12-04T10:09:21;71.30;;;30.10;;
75435;SDS011;64014;53.432;14.534;2022-12-04T10:14:41;75.65;;;28.30;;
75435;SDS011;64014;53.432;14.534;2022-12-04T10:22:55;82.43;;;34.67;;
75435;SDS011;64014;53.432;14.534;2022-12-04T10:25:24;83.03;;;34.42;;
75435;SDS011;64014;53.432;14.534;2022-12-04T10:27:55;78.10;;;32.80;;
75435;SDS011;64014;53.432;14.534;2022-12-04T10:30:28;88.20;;;35.83;;
75435;SDS011;64014;53.432;14.534;2022-12-04T10:33:06;69.85;;;30.13;;
75435;SDS011;64014;53.432;14.534;2022-12-04T10:35:43;77.07;;;32.75;;
75435;SDS011;64014;53.432;14.534;2022-12-04T10:38:36;73.50;;;31.33;;
75435;SDS011;64014;53.432;14.534;2022-12-04T10:41:02;70.03;;;29.60;;
75435;SDS011;64014;53.432;14.534;2022-12-04T10:43:43;86.22;;;36.55;;
75435;SDS011;64014;53.432;14.534;2022-12-04T10:46:15;96.40;;;42.53;;
75435;SDS011;64014;53.432;14.534;2022-12-04T10:48:50;128.65;;;57.47;;
75435;SDS011;64014;53.432;14.534;2022-12-04T10:51:21;91.07;;;41.00;;
75435;SDS011;64014;53.432;14.534;2022-12-04T10:53:48;87.00;;;34.88;;
75435;SDS011;64014;53.432;14.534;2022-12-04T10:56:19;86.65;;;38.25;;
75435;SDS011;64014;53.432;14.534;2022-12-04T10:59:03;83.32;;;35.72;;
75435;SDS011;64014;53.432;14.534;2022-12-04T11:01:30;69.75;;;30.15;;
75435;SDS011;64014;53.432;14.534;2022-12-04T11:04:08;98.63;;;43.20;;
75435;SDS011;64014;53.432;14.534;2022-12-04T11:07:05;100.53;;;43.03;;
75435;SDS011;64014;53.432;14.534;2022-12-04T11:09:53;94.80;;;44.95;;
75435;SDS011;64014;53.432;14.534;2022-12-04T11:12:24;88.80;;;37.03;;
75435;SDS011;64014;53.432;14.534;2022-12-04T11:17:45;74.95;;;35.65;;
75435;SDS011;64014;53.432;14.534;2022-12-04T11:20:17;81.47;;;35.17;;
75435;SDS011;64014;53.432;14.534;2022-12-04T11:22:49;77.25;;;34.35;;
75435;SDS011;64014;53.432;14.534;2022-12-04T11:25:16;92.53;;;39.30;;
75435;SDS011;64014;53.432;14.534;2022-12-04T11:27:45;80.93;;;35.63;;
75435;SDS011;64014;53.432;14.534;2022-12-04T11:30:13;70.50;;;29.10;;
75435;SDS011;64014;53.432;14.534;2022-12-04T11:32:43;78.65;;;32.08;;
75435;SDS011;64014;53.432;14.534;2022-12-04T11:35:12;76.38;;;30.08;;
75435;SDS011;64014;53.432;14.534;2022-12-04T11:37:41;67.03;;;29.30;;
75435;SDS011;64014;53.432;14.534;2022-12-04T11:40:20;78.75;;;33.10;;
75435;SDS011;64014;53.432;14.534;2022-12-04T11:45:30;91.72;;;37.10;;
75435;SDS011;64014;53.432;14.534;2022-12-04T11:48:01;69.60;;;29.70;;
75435;SDS011;64014;53.432;14.534;2022-12-04T11:56:19;71.32;;;28.10;;
75435;SDS011;64014;53.432;14.534;2022-12-04T11:59:19;67.75;;;26.58;;
75435;SDS011;64014;53.432;14.534;2022-12-04T12:02:13;72.00;;;29.23;;
75435;SDS011;64014;53.432;14.534;2022-12-04T12:10:02;74.57;;;33.35;;
75435;SDS011;64014;53.432;14.534;2022-12-04T12:20:28;77.22;;;30.23;;
75435;SDS011;64014;53.432;14.534;2022-12-04T12:25:54;72.75;;;29.30;;
75435;SDS011;64014;53.432;14.534;2022-12-04T12:33:57;85.90;;;33.35;;
75435;SDS011;64014;53.432;14.534;2022-12-04T12:36:30;90.32;;;33.03;;
75435;SDS011;64014;53.432;14.534;2022-12-04T12:39:02;90.68;;;34.70;;
75435;SDS011;64014;53.432;14.534;2022-12-04T12:41:42;89.35;;;35.78;;
75435;SDS011;64014;53.432;14.534;2022-12-04T12:44:17;86.47;;;33.15;;
75435;SDS011;64014;53.432;14.534;2022-12-04T12:46:53;85.22;;;35.33;;
75435;SDS011;64014;53.432;14.534;2022-12-04T12:49:29;98.28;;;39.95;;
75435;SDS011;64014;53.432;14.534;2022-12-04T12:58:16;116.65;;;40.40;;
75435;SDS011;64014;53.432;14.534;2022-12-04T13:00:45;109.05;;;42.80;;
75435;SDS011;64014;53.432;14.534;2022-12-04T13:06:03;83.05;;;35.05;;
75435;SDS011;64014;53.432;14.534;2022-12-04T13:08:42;84.65;;;32.40;;
75435;SDS011;64014;53.432;14.534;2022-12-04T13:11:23;81.88;;;31.85;;
75435;SDS011;64014;53.432;14.534;2022-12-04T13:13:53;73.18;;;30.52;;
75435;SDS011;64014;53.432;14.534;2022-12-04T13:21:34;81.93;;;31.17;;
75435;SDS011;64014;53.432;14.534;2022-12-04T13:24:23;91.00;;;30.83;;
75435;SDS011;64014;53.432;14.534;2022-12-04T13:38:04;76.05;;;29.15;;
75435;SDS011;64014;53.432;14.534;2022-12-04T13:41:08;85.63;;;32.92;;
75435;SDS011;64014;53.432;14.534;2022-12-04T13:46:06;78.18;;;29.52;;
75435;SDS011;64014;53.432;14.534;2022-12-04T13:48:47;86.43;;;31.08;;
75435;SDS011;64014;53.432;14.534;2022-12-04T13:54:00;87.88;;;33.17;;
75435;SDS011;64014;53.432;14.534;2022-12-04T13:56:45;89.13;;;30.77;;
75435;SDS011;64014;53.432;14.534;2022-12-04T14:01:47;79.25;;;29.42;;
75435;SDS011;64014;53.432;14.534;2022-12-04T14:04:22;89.30;;;31.02;;
75435;SDS011;64014;53.432;14.534;2022-12-04T14:12:49;89.97;;;31.38;;
75435;SDS011;64014;53.432;14.534;2022-12-04T14:15:36;94.63;;;32.67;;
75435;SDS011;64014;53.432;14.534;2022-12-04T14:18:05;97.18;;;33.20;;
75435;SDS011;64014;53.432;14.534;2022-12-04T14:20:44;105.65;;;36.65;;
75435;SDS011;64014;53.432;14.534;2022-12-04T14:23:41;98.97;;;33.22;;
75435;SDS011;64014;53.432;14.534;2022-12-04T14:26:18;89.25;;;31.50;;
75435;SDS011;64014;53.432;14.534;2022-12-04T14:28:43;95.18;;;32.92;;
75435;SDS011;64014;53.432;14.534;2022-12-04T14:34:09;102.15;;;37.17;;
75435;SDS011;64014;53.432;14.534;2022-12-04T14:36:46;94.78;;;33.95;;
75435;SDS011;64014;53.432;14.534;2022-12-04T14:39:31;99.68;;;35.20;;
75435;SDS011;64014;53.432;14.534;2022-12-04T14:42:15;94.97;;;29.85;;
75435;SDS011;64014;53.432;14.534;2022-12-04T14:44:50;85.97;;;29.45;;
75435;SDS011;64014;53.432;14.534;2022-12-04T14:50:12;97.40;;;34.47;;
75435;SDS011;64014;53.432;14.534;2022-12-04T14:52:49;95.22;;;30.55;;
75435;SDS011;64014;53.432;14.534;2022-12-04T14:55:50;97.28;;;32.92;;
75435;SDS011;64014;53.432;14.534;2022-12-04T14:58:15;105.25;;;34.15;;
75435;SDS011;64014;53.432;14.534;2022-12-04T15:00:59;94.72;;;31.30;;
75435;SDS011;64014;53.432;14.534;2022-12-04T15:03:26;101.97;;;35.90;;
75435;SDS011;64014;53.432;14.534;2022-12-04T15:06:29;107.57;;;39.03;;
75435;SDS011;64014;53.432;14.534;2022-12-04T15:09:00;109.70;;;45.80;;
75435;SDS011;64014;53.432;14.534;2022-12-04T15:11:55;104.13;;;38.58;;
75435;SDS011;64014;53.432;14.534;2022-12-04T15:14:46;106.15;;;36.55;;
75435;SDS011;64014;53.432;14.534;2022-12-04T15:17:14;100.50;;;32.45;;
75435;SDS011;64014;53.432;14.534;2022-12-04T15:19:41;101.13;;;32.70;;
75435;SDS011;64014;53.432;14.534;2022-12-04T15:22:24;106.32;;;32.45;;
75435;SDS011;64014;53.432;14.534;2022-12-04T15:24:52;97.80;;;32.40;;
75435;SDS011;64014;53.432;14.534;2022-12-04T15:27:19;106.57;;;35.42;;
75435;SDS011;64014;53.432;14.534;2022-12-04T15:29:47;100.78;;;34.92;;
75435;SDS011;64014;53.432;14.534;2022-12-04T15:32:16;97.13;;;30.92;;
75435;SDS011;64014;53.432;14.534;2022-12-04T15:34:49;115.35;;;35.70;;
75435;SDS011;64014;53.432;14.534;2022-12-04T15:37:21;98.93;;;35.88;;
75435;SDS011;64014;53.432;14.534;2022-12-04T15:39:52;97.30;;;33.72;;
75435;SDS011;64014;53.432;14.534;2022-12-04T15:44:52;109.97;;;35.20;;
75435;SDS011;64014;53.432;14.534;2022-12-04T15:47:26;96.45;;;34.88;;
75435;SDS011;64014;53.432;14.534;2022-12-04T15:49:54;96.45;;;33.33;;
75435;SDS011;64014;53.432;14.534;2022-12-04T15:52:20;110.35;;;35.50;;
75435;SDS011;64014;53.432;14.534;2022-12-04T15:54:58;103.20;;;38.67;;
75435;SDS011;64014;53.432;14.534;2022-12-04T15:57:27;102.57;;;36.20;;
75435;SDS011;64014;53.432;14.534;2022-12-04T16:02:45;95.80;;;31.45;;
75435;SDS011;64014;53.432;14.534;2022-12-04T16:07:50;106.55;;;34.55;;
75435;SDS011;64014;53.432;14.534;2022-12-04T16:10:28;99.88;;;33.70;;
75435;SDS011;64014;53.432;14.534;2022-12-04T16:13:02;83.40;;;27.92;;
75435;SDS011;64014;53.432;14.534;2022-12-04T16:15:41;101.25;;;33.30;;
75435;SDS011;64014;53.432;14.534;2022-12-04T16:18:11;109.35;;;35.42;;
75435;SDS011;64014;53.432;14.534;2022-12-04T16:20:38;96.47;;;30.15;;
75435;SDS011;64014;53.432;14.534;2022-12-04T16:23:05;91.30;;;31.17;;
75435;SDS011;64014;53.432;14.534;2022-12-04T16:25:31;89.45;;;28.23;;
75435;SDS011;64014;53.432;14.534;2022-12-04T16:27:57;80.03;;;26.42;;
75435;SDS011;64014;53.432;14.534;2022-12-04T16:30:24;82.03;;;26.77;;
75435;SDS011;64014;53.432;14.534;2022-12-04T16:32:51;83.25;;;25.73;;
75435;SDS011;64014;53.432;14.534;2022-12-04T16:35:17;95.22;;;29.05;;
75435;SDS011;64014;53.432;14.534;2022-12-04T16:37:44;83.25;;;27.67;;
75435;SDS011;64014;53.432;14.534;2022-12-04T16:40:10;78.45;;;26.42;;
75435;SDS011;64014;53.432;14.534;2022-12-04T16:42:37;89.97;;;27.88;;
75435;SDS011;64014;53.432;14.534;2022-12-04T16:45:17;80.50;;;24.10;;
75435;SDS011;64014;53.432;14.534;2022-12-04T16:47:51;69.55;;;23.88;;